sensor_id;sensor_type;location;lat;lon;timestamp;P1;durP1;ratioP1;P2;durP2;ratioP2
1925;SDS011;964;42.606;23.588;2022-11-25T00:00:34;1.83;;;1.47;;
1925;SDS011;964;42.606;23.588;2022-11-25T00:03:00;2.10;;;1.90;;
1925;SDS011;964;42.606;23.588;2022-11-25T00:05:28;3.30;;;2.47;;
1925;SDS011;964;42.606;23.588;2022-11-25T00:07:55;2.03;;;1.70;;
1925;SDS011;964;42.606;23.588;2022-11-25T00:10:22;3.73;;;2.57;;
1925;SDS011;964;42.606;23.588;2022-11-25T00:12:51;2.70;;;2.20;;
1925;SDS011;964;42.606;23.588;2022-11-25T00:15:17;3.80;;;2.40;;
1925;SDS011;964;42.606;23.588;2022-11-25T00:17:44;2.30;;;2.03;;
1925;SDS011;964;42.606;23.588;2022-11-25T00:20:11;2.90;;;2.50;;
1925;SDS011;964;42.606;23.588;2022-11-25T00:22:38;3.33;;;2.53;;
1925;SDS011;964;42.606;23.588;2022-11-25T00:25:05;2.63;;;2.27;;
1925;SDS011;964;42.606;23.588;2022-11-25T00:27:32;4.60;;;3.07;;
1925;SDS011;964;42.606;23.588;2022-11-25T00:30:01;4.00;;;3.37;;
1925;SDS011;964;42.606;23.588;2022-11-25T00:32:27;2.60;;;2.40;;
1925;SDS011;964;42.606;23.588;2022-11-25T00:34:54;2.40;;;1.90;;
1925;SDS011;964;42.606;23.588;2022-11-25T00:37:21;2.00;;;1.57;;
1925;SDS011;964;42.606;23.588;2022-11-25T00:39:48;2.60;;;2.40;;
1925;SDS011;964;42.606;23.588;2022-11-25T00:42:15;2.43;;;1.80;;
1925;SDS011;964;42.606;23.588;2022-11-25T00:44:58;2.30;;;2.00;;
1925;SDS011;964;42.606;23.588;2022-11-25T00:47:26;2.93;;;2.13;;
1925;SDS011;964;42.606;23.588;2022-11-25T00:49:54;3.40;;;2.90;;
1925;SDS011;964;42.606;23.588;2022-11-25T00:52:21;2.60;;;2.37;;
1925;SDS011;964;42.606;23.588;2022-11-25T00:54:50;3.20;;;2.67;;
1925;SDS011;964;42.606;23.588;2022-11-25T00:57:18;3.80;;;2.50;;
1925;SDS011;964;42.606;23.588;2022-11-25T00:59:46;3.27;;;2.93;;
1925;SDS011;964;42.606;23.588;2022-11-25T01:02:14;2.53;;;2.10;;
1925;SDS011;964;42.606;23.588;2022-11-25T01:04:43;2.60;;;2.40;;
1925;SDS011;964;42.606;23.588;2022-11-25T01:07:09;2.00;;;1.87;;
1925;SDS011;964;42.606;23.588;2022-11-25T01:09:36;2.90;;;2.63;;
1925;SDS011;964;42.606;23.588;2022-11-25T01:12:03;3.27;;;2.97;;
1925;SDS011;964;42.606;23.588;2022-11-25T01:14:30;6.00;;;4.00;;
1925;SDS011;964;42.606;23.588;2022-11-25T01:16:57;2.77;;;2.47;;
1925;SDS011;964;42.606;23.588;2022-11-25T01:19:24;4.10;;;3.37;;
1925;SDS011;964;42.606;23.588;2022-11-25T01:21:52;5.93;;;4.17;;
1925;SDS011;964;42.606;23.588;2022-11-25T01:24:19;5.67;;;3.50;;
1925;SDS011;964;42.606;23.588;2022-11-25T01:26:46;2.53;;;2.27;;
1925;SDS011;964;42.606;23.588;2022-11-25T01:29:14;7.07;;;3.30;;
1925;SDS011;964;42.606;23.588;2022-11-25T01:31:42;4.03;;;3.23;;
1925;SDS011;964;42.606;23.588;2022-11-25T01:34:11;5.83;;;3.17;;
1925;SDS011;964;42.606;23.588;2022-11-25T01:36:40;3.50;;;3.20;;
1925;SDS011;964;42.606;23.588;2022-11-25T01:39:10;3.73;;;3.10;;
1925;SDS011;964;42.606;23.588;2022-11-25T01:41:41;2.60;;;2.40;;
1925;SDS011;964;42.606;23.588;2022-11-25T01:44:10;4.00;;;3.40;;
1925;SDS011;964;42.606;23.588;2022-11-25T01:46:42;4.73;;;2.50;;
1925;SDS011;964;42.606;23.588;2022-11-25T01:49:13;3.63;;;3.30;;
1925;SDS011;964;42.606;23.588;2022-11-25T01:51:46;4.20;;;3.77;;
1925;SDS011;964;42.606;23.588;2022-11-25T01:54:21;4.60;;;2.83;;
1925;SDS011;964;42.606;23.588;2022-11-25T01:56:53;4.37;;;3.37;;
1925;SDS011;964;42.606;23.588;2022-11-25T01:59:23;3.63;;;3.23;;
1925;SDS011;964;42.606;23.588;2022-11-25T02:01:50;3.20;;;2.70;;
1925;SDS011;964;42.606;23.588;2022-11-25T02:04:18;4.60;;;3.40;;
1925;SDS011;964;42.606;23.588;2022-11-25T02:06:48;4.13;;;3.53;;
1925;SDS011;964;42.606;23.588;2022-11-25T02:09:22;2.93;;;2.73;;
1925;SDS011;964;42.606;23.588;2022-11-25T02:11:50;3.60;;;3.20;;
1925;SDS011;964;42.606;23.588;2022-11-25T02:14:17;6.50;;;3.70;;
1925;SDS011;964;42.606;23.588;2022-11-25T02:16:45;6.90;;;3.27;;
1925;SDS011;964;42.606;23.588;2022-11-25T02:19:15;3.57;;;3.20;;
1925;SDS011;964;42.606;23.588;2022-11-25T02:21:49;5.90;;;3.63;;
1925;SDS011;964;42.606;23.588;2022-11-25T02:24:21;4.20;;;3.80;;
1925;SDS011;964;42.606;23.588;2022-11-25T02:26:56;4.10;;;3.70;;
1925;SDS011;964;42.606;23.588;2022-11-25T02:29:23;4.60;;;3.10;;
1925;SDS011;964;42.606;23.588;2022-11-25T02:31:50;4.40;;;3.37;;
1925;SDS011;964;42.606;23.588;2022-11-25T02:34:17;3.97;;;2.77;;
1925;SDS011;964;42.606;23.588;2022-11-25T02:36:44;4.47;;;3.30;;
1925;SDS011;964;42.606;23.588;2022-11-25T02:39:11;5.00;;;3.10;;
1925;SDS011;964;42.606;23.588;2022-11-25T02:41:39;3.20;;;3.00;;
1925;SDS011;964;42.606;23.588;2022-11-25T02:44:10;3.53;;;3.13;;
1925;SDS011;964;42.606;23.588;2022-11-25T02:46:37;2.90;;;2.60;;
1925;SDS011;964;42.606;23.588;2022-11-25T02:49:04;2.87;;;2.57;;
1925;SDS011;964;42.606;23.588;2022-11-25T02:51:31;2.97;;;2.73;;
1925;SDS011;964;42.606;23.588;2022-11-25T02:53:59;3.23;;;2.77;;
1925;SDS011;964;42.606;23.588;2022-11-25T02:56:27;2.90;;;2.63;;
1925;SDS011;964;42.606;23.588;2022-11-25T02:58:55;4.23;;;2.90;;
1925;SDS011;964;42.606;23.588;2022-11-25T03:01:24;3.20;;;2.60;;
1925;SDS011;964;42.606;23.588;2022-11-25T03:03:50;2.60;;;2.40;;
1925;SDS011;964;42.606;23.588;2022-11-25T03:06:17;3.10;;;2.80;;
1925;SDS011;964;42.606;23.588;2022-11-25T03:08:44;2.67;;;2.47;;
1925;SDS011;964;42.606;23.588;2022-11-25T03:11:11;2.27;;;2.03;;
1925;SDS011;964;42.606;23.588;2022-11-25T03:13:38;2.97;;;2.57;;
1925;SDS011;964;42.606;23.588;2022-11-25T03:16:06;6.60;;;3.07;;
1925;SDS011;964;42.606;23.588;2022-11-25T03:18:34;3.13;;;2.47;;
1925;SDS011;964;42.606;23.588;2022-11-25T03:21:01;2.40;;;2.20;;
1925;SDS011;964;42.606;23.588;2022-11-25T03:23:29;2.83;;;2.60;;
1925;SDS011;964;42.606;23.588;2022-11-25T03:25:55;2.17;;;1.97;;
1925;SDS011;964;42.606;23.588;2022-11-25T03:28:22;2.10;;;1.80;;
1925;SDS011;964;42.606;23.588;2022-11-25T03:30:49;2.40;;;2.00;;
1925;SDS011;964;42.606;23.588;2022-11-25T03:33:16;2.43;;;2.23;;
1925;SDS011;964;42.606;23.588;2022-11-25T03:35:44;3.50;;;2.20;;
1925;SDS011;964;42.606;23.588;2022-11-25T03:38:13;3.33;;;2.77;;
1925;SDS011;964;42.606;23.588;2022-11-25T03:40:40;2.47;;;2.27;;
1925;SDS011;964;42.606;23.588;2022-11-25T03:43:06;2.10;;;2.00;;
1925;SDS011;964;42.606;23.588;2022-11-25T03:45:33;2.90;;;2.60;;
1925;SDS011;964;42.606;23.588;2022-11-25T03:48:00;2.60;;;2.10;;
1925;SDS011;964;42.606;23.588;2022-11-25T03:50:27;2.20;;;1.83;;
1925;SDS011;964;42.606;23.588;2022-11-25T03:52:55;2.37;;;2.17;;
1925;SDS011;964;42.606;23.588;2022-11-25T03:55:22;2.10;;;1.90;;
1925;SDS011;964;42.606;23.588;2022-11-25T03:57:49;2.83;;;2.43;;
1925;SDS011;964;42.606;23.588;2022-11-25T04:00:16;3.40;;;2.30;;
1925;SDS011;964;42.606;23.588;2022-11-25T04:02:43;3.03;;;1.90;;
1925;SDS011;964;42.606;23.588;2022-11-25T04:05:09;5.30;;;2.50;;
1925;SDS011;964;42.606;23.588;2022-11-25T04:07:36;4.67;;;2.80;;
1925;SDS011;964;42.606;23.588;2022-11-25T04:10:05;2.40;;;2.20;;
1925;SDS011;964;42.606;23.588;2022-11-25T04:12:33;2.00;;;1.80;;
1925;SDS011;964;42.606;23.588;2022-11-25T04:15:11;2.33;;;2.00;;
1925;SDS011;964;42.606;23.588;2022-11-25T04:17:39;1.93;;;1.77;;
1925;SDS011;964;42.606;23.588;2022-11-25T04:20:06;4.20;;;3.07;;
1925;SDS011;964;42.606;23.588;2022-11-25T04:22:34;6.40;;;2.30;;
1925;SDS011;964;42.606;23.588;2022-11-25T04:25:01;3.93;;;2.67;;
1925;SDS011;964;42.606;23.588;2022-11-25T04:27:33;3.20;;;2.40;;
1925;SDS011;964;42.606;23.588;2022-11-25T04:30:00;2.27;;;1.90;;
1925;SDS011;964;42.606;23.588;2022-11-25T04:32:27;3.57;;;3.27;;
1925;SDS011;964;42.606;23.588;2022-11-25T04:34:54;3.10;;;2.70;;
1925;SDS011;964;42.606;23.588;2022-11-25T04:37:21;2.33;;;2.10;;
1925;SDS011;964;42.606;23.588;2022-11-25T04:39:48;2.90;;;2.60;;
1925;SDS011;964;42.606;23.588;2022-11-25T04:42:15;3.30;;;2.47;;
1925;SDS011;964;42.606;23.588;2022-11-25T04:44:58;3.83;;;2.57;;
1925;SDS011;964;42.606;23.588;2022-11-25T04:47:25;2.50;;;2.10;;
1925;SDS011;964;42.606;23.588;2022-11-25T04:49:52;2.43;;;2.23;;
1925;SDS011;964;42.606;23.588;2022-11-25T04:52:19;3.57;;;3.27;;
1925;SDS011;964;42.606;23.588;2022-11-25T04:54:45;3.03;;;2.73;;
1925;SDS011;964;42.606;23.588;2022-11-25T04:57:12;2.63;;;2.20;;
1925;SDS011;964;42.606;23.588;2022-11-25T04:59:40;2.40;;;2.20;;
1925;SDS011;964;42.606;23.588;2022-11-25T05:02:08;4.00;;;2.40;;
1925;SDS011;964;42.606;23.588;2022-11-25T05:04:39;2.93;;;2.73;;
1925;SDS011;964;42.606;23.588;2022-11-25T05:07:07;3.03;;;2.77;;
1925;SDS011;964;42.606;23.588;2022-11-25T05:09:33;3.00;;;2.33;;
1925;SDS011;964;42.606;23.588;2022-11-25T05:12:01;4.27;;;2.73;;
1925;SDS011;964;42.606;23.588;2022-11-25T05:14:28;3.30;;;2.40;;
1925;SDS011;964;42.606;23.588;2022-11-25T05:16:54;5.13;;;2.37;;
1925;SDS011;964;42.606;23.588;2022-11-25T05:19:23;2.40;;;2.20;;
1925;SDS011;964;42.606;23.588;2022-11-25T05:21:49;3.43;;;2.57;;
1925;SDS011;964;42.606;23.588;2022-11-25T05:24:16;2.40;;;2.20;;
1925;SDS011;964;42.606;23.588;2022-11-25T05:26:43;2.40;;;1.73;;
1925;SDS011;964;42.606;23.588;2022-11-25T05:29:10;3.30;;;2.23;;
1925;SDS011;964;42.606;23.588;2022-11-25T05:31:37;2.53;;;2.33;;
1925;SDS011;964;42.606;23.588;2022-11-25T05:34:04;3.10;;;2.50;;
1925;SDS011;964;42.606;23.588;2022-11-25T05:36:32;1.97;;;1.70;;
1925;SDS011;964;42.606;23.588;2022-11-25T05:38:59;2.73;;;2.50;;
1925;SDS011;964;42.606;23.588;2022-11-25T05:41:26;2.40;;;2.07;;
1925;SDS011;964;42.606;23.588;2022-11-25T05:43:53;3.80;;;2.47;;
1925;SDS011;964;42.606;23.588;2022-11-25T05:46:21;2.37;;;2.10;;
1925;SDS011;964;42.606;23.588;2022-11-25T05:48:51;4.60;;;1.90;;
1925;SDS011;964;42.606;23.588;2022-11-25T05:51:18;3.20;;;2.40;;
1925;SDS011;964;42.606;23.588;2022-11-25T05:53:47;2.73;;;2.53;;
1925;SDS011;964;42.606;23.588;2022-11-25T05:56:14;3.00;;;2.60;;
1925;SDS011;964;42.606;23.588;2022-11-25T05:58:40;2.47;;;2.27;;
1925;SDS011;964;42.606;23.588;2022-11-25T06:01:07;2.97;;;1.73;;
1925;SDS011;964;42.606;23.588;2022-11-25T06:03:35;2.93;;;2.40;;
1925;SDS011;964;42.606;23.588;2022-11-25T06:06:03;2.50;;;1.73;;
1925;SDS011;964;42.606;23.588;2022-11-25T06:08:31;2.43;;;1.93;;
1925;SDS011;964;42.606;23.588;2022-11-25T06:11:02;2.23;;;2.03;;
1925;SDS011;964;42.606;23.588;2022-11-25T06:13:30;1.87;;;1.77;;
1925;SDS011;964;42.606;23.588;2022-11-25T06:15:57;3.30;;;1.80;;
1925;SDS011;964;42.606;23.588;2022-11-25T06:18:23;4.53;;;2.37;;
1925;SDS011;964;42.606;23.588;2022-11-25T06:20:54;2.00;;;1.90;;
1925;SDS011;964;42.606;23.588;2022-11-25T06:23:22;2.80;;;2.27;;
1925;SDS011;964;42.606;23.588;2022-11-25T06:25:49;2.33;;;2.13;;
1925;SDS011;964;42.606;23.588;2022-11-25T06:28:17;2.40;;;1.60;;
1925;SDS011;964;42.606;23.588;2022-11-25T06:30:44;2.00;;;1.90;;
1925;SDS011;964;42.606;23.588;2022-11-25T06:33:11;1.50;;;1.40;;
1925;SDS011;964;42.606;23.588;2022-11-25T06:35:38;2.90;;;1.40;;
1925;SDS011;964;42.606;23.588;2022-11-25T06:38:05;3.43;;;1.97;;
1925;SDS011;964;42.606;23.588;2022-11-25T06:40:31;2.40;;;1.93;;
1925;SDS011;964;42.606;23.588;2022-11-25T06:42:58;2.00;;;1.90;;
1925;SDS011;964;42.606;23.588;2022-11-25T06:45:26;2.07;;;1.87;;
1925;SDS011;964;42.606;23.588;2022-11-25T06:47:53;3.33;;;2.30;;
1925;SDS011;964;42.606;23.588;2022-11-25T06:50:22;1.97;;;1.70;;
1925;SDS011;964;42.606;23.588;2022-11-25T06:52:49;3.50;;;2.37;;
1925;SDS011;964;42.606;23.588;2022-11-25T06:55:15;1.77;;;1.10;;
1925;SDS011;964;42.606;23.588;2022-11-25T06:57:42;2.07;;;1.93;;
1925;SDS011;964;42.606;23.588;2022-11-25T07:00:09;2.23;;;2.03;;
1925;SDS011;964;42.606;23.588;2022-11-25T07:02:38;2.77;;;2.17;;
1925;SDS011;964;42.606;23.588;2022-11-25T07:05:05;2.20;;;2.00;;
1925;SDS011;964;42.606;23.588;2022-11-25T07:07:32;3.20;;;2.30;;
1925;SDS011;964;42.606;23.588;2022-11-25T07:09:59;1.87;;;1.70;;
1925;SDS011;964;42.606;23.588;2022-11-25T07:12:26;1.77;;;1.67;;
1925;SDS011;964;42.606;23.588;2022-11-25T07:14:53;3.00;;;2.70;;
1925;SDS011;964;42.606;23.588;2022-11-25T07:17:19;3.20;;;2.00;;
1925;SDS011;964;42.606;23.588;2022-11-25T07:19:48;2.50;;;2.17;;
1925;SDS011;964;42.606;23.588;2022-11-25T07:22:15;2.37;;;2.17;;
1925;SDS011;964;42.606;23.588;2022-11-25T07:24:41;4.90;;;2.70;;
1925;SDS011;964;42.606;23.588;2022-11-25T07:27:08;2.93;;;2.30;;
1925;SDS011;964;42.606;23.588;2022-11-25T07:29:35;2.70;;;2.40;;
1925;SDS011;964;42.606;23.588;2022-11-25T07:32:02;3.10;;;2.43;;
1925;SDS011;964;42.606;23.588;2022-11-25T07:34:29;4.40;;;2.17;;
1925;SDS011;964;42.606;23.588;2022-11-25T07:36:57;2.80;;;2.50;;
1925;SDS011;964;42.606;23.588;2022-11-25T07:39:24;3.87;;;2.43;;
1925;SDS011;964;42.606;23.588;2022-11-25T07:41:51;1.83;;;1.67;;
1925;SDS011;964;42.606;23.588;2022-11-25T07:44:19;2.60;;;2.27;;
1925;SDS011;964;42.606;23.588;2022-11-25T07:46:46;2.70;;;2.40;;
1925;SDS011;964;42.606;23.588;2022-11-25T07:49:15;3.10;;;2.80;;
1925;SDS011;964;42.606;23.588;2022-11-25T07:51:45;3.43;;;3.00;;
1925;SDS011;964;42.606;23.588;2022-11-25T07:54:16;4.00;;;3.67;;
1925;SDS011;964;42.606;23.588;2022-11-25T07:56:43;3.80;;;2.73;;
1925;SDS011;964;42.606;23.588;2022-11-25T07:59:11;4.37;;;3.10;;
1925;SDS011;964;42.606;23.588;2022-11-25T08:01:39;5.13;;;3.20;;
1925;SDS011;964;42.606;23.588;2022-11-25T08:04:06;6.30;;;2.13;;
1925;SDS011;964;42.606;23.588;2022-11-25T08:06:36;4.00;;;2.70;;
1925;SDS011;964;42.606;23.588;2022-11-25T08:09:04;2.13;;;1.93;;
1925;SDS011;964;42.606;23.588;2022-11-25T08:11:32;2.50;;;2.23;;
1925;SDS011;964;42.606;23.588;2022-11-25T08:14:00;2.60;;;2.40;;
1925;SDS011;964;42.606;23.588;2022-11-25T08:16:27;3.20;;;2.80;;
1925;SDS011;964;42.606;23.588;2022-11-25T08:18:56;4.63;;;2.80;;
1925;SDS011;964;42.606;23.588;2022-11-25T08:21:23;2.60;;;2.40;;
1925;SDS011;964;42.606;23.588;2022-11-25T08:23:51;4.80;;;3.83;;
1925;SDS011;964;42.606;23.588;2022-11-25T08:26:18;3.63;;;3.07;;
1925;SDS011;964;42.606;23.588;2022-11-25T08:28:48;4.20;;;3.37;;
1925;SDS011;964;42.606;23.588;2022-11-25T08:31:17;4.47;;;3.17;;
1925;SDS011;964;42.606;23.588;2022-11-25T08:33:46;3.50;;;2.80;;
1925;SDS011;964;42.606;23.588;2022-11-25T08:36:14;3.50;;;3.20;;
1925;SDS011;964;42.606;23.588;2022-11-25T08:38:41;4.33;;;3.27;;
1925;SDS011;964;42.606;23.588;2022-11-25T08:41:09;6.20;;;4.03;;
1925;SDS011;964;42.606;23.588;2022-11-25T08:43:37;3.17;;;2.90;;
1925;SDS011;964;42.606;23.588;2022-11-25T08:46:09;4.77;;;3.63;;
1925;SDS011;964;42.606;23.588;2022-11-25T08:48:38;4.53;;;3.20;;
1925;SDS011;964;42.606;23.588;2022-11-25T08:51:09;3.20;;;2.90;;
1925;SDS011;964;42.606;23.588;2022-11-25T08:53:37;6.43;;;4.10;;
1925;SDS011;964;42.606;23.588;2022-11-25T08:56:06;4.10;;;3.70;;
1925;SDS011;964;42.606;23.588;2022-11-25T08:58:34;5.53;;;3.20;;
1925;SDS011;964;42.606;23.588;2022-11-25T09:01:02;3.37;;;2.90;;
1925;SDS011;964;42.606;23.588;2022-11-25T09:03:32;3.03;;;2.73;;
1925;SDS011;964;42.606;23.588;2022-11-25T09:06:00;3.83;;;3.40;;
1925;SDS011;964;42.606;23.588;2022-11-25T09:08:27;5.13;;;3.10;;
1925;SDS011;964;42.606;23.588;2022-11-25T09:10:55;6.30;;;3.23;;
1925;SDS011;964;42.606;23.588;2022-11-25T09:13:22;3.93;;;3.37;;
1925;SDS011;964;42.606;23.588;2022-11-25T09:15:49;4.03;;;3.40;;
1925;SDS011;964;42.606;23.588;2022-11-25T09:18:15;5.60;;;4.77;;
1925;SDS011;964;42.606;23.588;2022-11-25T09:20:45;3.90;;;2.70;;
1925;SDS011;964;42.606;23.588;2022-11-25T09:23:12;3.30;;;3.00;;
1925;SDS011;964;42.606;23.588;2022-11-25T09:25:39;3.67;;;3.30;;
1925;SDS011;964;42.606;23.588;2022-11-25T09:28:06;4.60;;;3.67;;
1925;SDS011;964;42.606;23.588;2022-11-25T09:30:35;2.83;;;2.63;;
1925;SDS011;964;42.606;23.588;2022-11-25T09:33:02;5.17;;;2.97;;
1925;SDS011;964;42.606;23.588;2022-11-25T09:35:29;3.70;;;3.37;;
1925;SDS011;964;42.606;23.588;2022-11-25T09:37:57;6.70;;;4.07;;
1925;SDS011;964;42.606;23.588;2022-11-25T09:40:26;3.63;;;3.33;;
1925;SDS011;964;42.606;23.588;2022-11-25T09:43:01;5.37;;;3.90;;
1925;SDS011;964;42.606;23.588;2022-11-25T09:45:57;4.03;;;3.73;;
1925;SDS011;964;42.606;23.588;2022-11-25T09:48:53;3.93;;;3.53;;
1925;SDS011;964;42.606;23.588;2022-11-25T09:51:26;4.07;;;3.60;;
1925;SDS011;964;42.606;23.588;2022-11-25T09:54:02;3.43;;;2.97;;
1925;SDS011;964;42.606;23.588;2022-11-25T09:56:39;5.40;;;3.80;;
1925;SDS011;964;42.606;23.588;2022-11-25T09:59:10;3.20;;;2.90;;
1925;SDS011;964;42.606;23.588;2022-11-25T10:01:43;3.73;;;3.40;;
1925;SDS011;964;42.606;23.588;2022-11-25T10:04:15;2.70;;;2.47;;
1925;SDS011;964;42.606;23.588;2022-11-25T10:06:47;3.77;;;3.30;;
1925;SDS011;964;42.606;23.588;2022-11-25T10:09:23;3.57;;;3.27;;
1925;SDS011;964;42.606;23.588;2022-11-25T10:11:52;3.97;;;3.53;;
1925;SDS011;964;42.606;23.588;2022-11-25T10:14:27;2.87;;;2.40;;
1925;SDS011;964;42.606;23.588;2022-11-25T10:16:57;3.60;;;3.30;;
1925;SDS011;964;42.606;23.588;2022-11-25T10:19:37;5.00;;;3.10;;
1925;SDS011;964;42.606;23.588;2022-11-25T10:22:13;4.77;;;3.27;;
1925;SDS011;964;42.606;23.588;2022-11-25T10:24:48;2.67;;;2.47;;
1925;SDS011;964;42.606;23.588;2022-11-25T10:27:18;2.90;;;2.60;;
1925;SDS011;964;42.606;23.588;2022-11-25T10:29:54;2.47;;;2.27;;
1925;SDS011;964;42.606;23.588;2022-11-25T10:32:28;3.40;;;3.10;;
1925;SDS011;964;42.606;23.588;2022-11-25T10:35:04;3.47;;;2.40;;
1925;SDS011;964;42.606;23.588;2022-11-25T10:37:40;2.57;;;2.37;;
1925;SDS011;964;42.606;23.588;2022-11-25T10:40:14;3.07;;;2.50;;
1925;SDS011;964;42.606;23.588;2022-11-25T10:42:42;3.07;;;2.23;;
1925;SDS011;964;42.606;23.588;2022-11-25T10:45:09;3.40;;;3.10;;
1925;SDS011;964;42.606;23.588;2022-11-25T10:47:43;2.87;;;2.57;;
1925;SDS011;964;42.606;23.588;2022-11-25T10:50:23;2.93;;;2.63;;
1925;SDS011;964;42.606;23.588;2022-11-25T10:52:57;1.87;;;1.60;;
1925;SDS011;964;42.606;23.588;2022-11-25T10:55:29;4.23;;;2.30;;
1925;SDS011;964;42.606;23.588;2022-11-25T10:57:58;2.00;;;1.80;;
1925;SDS011;964;42.606;23.588;2022-11-25T11:00:44;2.40;;;2.20;;
1925;SDS011;964;42.606;23.588;2022-11-25T11:03:12;2.20;;;1.83;;
1925;SDS011;964;42.606;23.588;2022-11-25T11:05:43;2.40;;;2.10;;
1925;SDS011;964;42.606;23.588;2022-11-25T11:08:15;2.90;;;2.20;;
1925;SDS011;964;42.606;23.588;2022-11-25T11:10:46;1.70;;;1.60;;
1925;SDS011;964;42.606;23.588;2022-11-25T11:13:19;2.80;;;2.27;;
1925;SDS011;964;42.606;23.588;2022-11-25T11:15:50;2.73;;;2.30;;
1925;SDS011;964;42.606;23.588;2022-11-25T11:18:24;6.93;;;2.70;;
1925;SDS011;964;42.606;23.588;2022-11-25T11:20:53;3.57;;;2.20;;
1925;SDS011;964;42.606;23.588;2022-11-25T11:23:22;2.57;;;2.37;;
1925;SDS011;964;42.606;23.588;2022-11-25T11:25:58;3.07;;;2.03;;
1925;SDS011;964;42.606;23.588;2022-11-25T11:28:27;2.07;;;1.97;;
1925;SDS011;964;42.606;23.588;2022-11-25T11:30:59;2.80;;;2.60;;
1925;SDS011;964;42.606;23.588;2022-11-25T11:33:33;2.20;;;1.60;;
1925;SDS011;964;42.606;23.588;2022-11-25T11:36:06;2.17;;;1.97;;
1925;SDS011;964;42.606;23.588;2022-11-25T11:38:51;2.50;;;2.30;;
1925;SDS011;964;42.606;23.588;2022-11-25T11:41:23;2.10;;;1.90;;
1925;SDS011;964;42.606;23.588;2022-11-25T11:44:07;3.83;;;3.43;;
1925;SDS011;964;42.606;23.588;2022-11-25T11:49:50;4.60;;;2.33;;
1925;SDS011;964;42.606;23.588;2022-11-25T11:52:30;2.17;;;1.97;;
1925;SDS011;964;42.606;23.588;2022-11-25T11:55:12;2.33;;;2.13;;
1925;SDS011;964;42.606;23.588;2022-11-25T11:57:52;2.43;;;2.23;;
1925;SDS011;964;42.606;23.588;2022-11-25T12:00:29;7.83;;;3.20;;
1925;SDS011;964;42.606;23.588;2022-11-25T12:02:59;2.33;;;2.13;;
1925;SDS011;964;42.606;23.588;2022-11-25T12:05:32;2.07;;;1.90;;
1925;SDS011;964;42.606;23.588;2022-11-25T12:08:03;3.27;;;2.93;;
1925;SDS011;964;42.606;23.588;2022-11-25T12:10:35;2.37;;;2.00;;
1925;SDS011;964;42.606;23.588;2022-11-25T12:13:10;1.83;;;1.73;;
1925;SDS011;964;42.606;23.588;2022-11-25T12:15:43;3.00;;;2.70;;
1925;SDS011;964;42.606;23.588;2022-11-25T12:18:16;3.13;;;2.83;;
1925;SDS011;964;42.606;23.588;2022-11-25T12:20:51;2.87;;;2.60;;
1925;SDS011;964;42.606;23.588;2022-11-25T12:23:24;3.70;;;2.60;;
1925;SDS011;964;42.606;23.588;2022-11-25T12:26:00;2.20;;;2.00;;
1925;SDS011;964;42.606;23.588;2022-11-25T12:28:34;3.20;;;2.30;;
1925;SDS011;964;42.606;23.588;2022-11-25T12:31:10;3.80;;;3.50;;
1925;SDS011;964;42.606;23.588;2022-11-25T12:33:48;5.43;;;3.00;;
1925;SDS011;964;42.606;23.588;2022-11-25T12:36:26;5.10;;;2.47;;
1925;SDS011;964;42.606;23.588;2022-11-25T12:38:59;3.87;;;2.10;;
1925;SDS011;964;42.606;23.588;2022-11-25T12:41:31;5.70;;;3.00;;
1925;SDS011;964;42.606;23.588;2022-11-25T12:44:07;3.90;;;2.73;;
1925;SDS011;964;42.606;23.588;2022-11-25T12:46:43;4.63;;;2.20;;
1925;SDS011;964;42.606;23.588;2022-11-25T12:49:13;3.17;;;2.87;;
1925;SDS011;964;42.606;23.588;2022-11-25T12:54:47;5.07;;;3.67;;
1925;SDS011;964;42.606;23.588;2022-11-25T13:00:46;3.10;;;2.90;;
1925;SDS011;964;42.606;23.588;2022-11-25T13:09:36;7.70;;;2.50;;
1925;SDS011;964;42.606;23.588;2022-11-25T13:12:22;4.13;;;2.97;;
1925;SDS011;964;42.606;23.588;2022-11-25T13:15:03;5.73;;;4.20;;
1925;SDS011;964;42.606;23.588;2022-11-25T13:17:50;2.93;;;2.53;;
1925;SDS011;964;42.606;23.588;2022-11-25T13:23:21;6.47;;;3.77;;
1925;SDS011;964;42.606;23.588;2022-11-25T13:25:50;5.13;;;3.63;;
1925;SDS011;964;42.606;23.588;2022-11-25T13:28:28;5.83;;;3.37;;
1925;SDS011;964;42.606;23.588;2022-11-25T13:31:15;5.17;;;2.83;;
1925;SDS011;964;42.606;23.588;2022-11-25T13:33:57;4.20;;;3.00;;
1925;SDS011;964;42.606;23.588;2022-11-25T13:36:45;6.60;;;4.10;;
1925;SDS011;964;42.606;23.588;2022-11-25T13:39:13;3.77;;;3.10;;
1925;SDS011;964;42.606;23.588;2022-11-25T13:41:46;3.33;;;2.53;;
1925;SDS011;964;42.606;23.588;2022-11-25T13:44:18;2.70;;;2.47;;
1925;SDS011;964;42.606;23.588;2022-11-25T13:46:47;4.73;;;3.40;;
1925;SDS011;964;42.606;23.588;2022-11-25T13:49:28;4.83;;;4.33;;
1925;SDS011;964;42.606;23.588;2022-11-25T13:52:00;4.90;;;3.70;;
1925;SDS011;964;42.606;23.588;2022-11-25T13:54:32;3.50;;;3.20;;
1925;SDS011;964;42.606;23.588;2022-11-25T13:57:16;3.80;;;2.87;;
1925;SDS011;964;42.606;23.588;2022-11-25T13:59:53;3.27;;;2.33;;
1925;SDS011;964;42.606;23.588;2022-11-25T14:02:23;4.57;;;3.00;;
1925;SDS011;964;42.606;23.588;2022-11-25T14:04:58;3.83;;;3.40;;
1925;SDS011;964;42.606;23.588;2022-11-25T14:07:49;3.87;;;3.23;;
1925;SDS011;964;42.606;23.588;2022-11-25T14:10:30;6.20;;;4.57;;
1925;SDS011;964;42.606;23.588;2022-11-25T14:16:15;3.10;;;2.80;;
1925;SDS011;964;42.606;23.588;2022-11-25T14:19:09;3.20;;;2.47;;
1925;SDS011;964;42.606;23.588;2022-11-25T14:22:05;3.67;;;3.17;;
1925;SDS011;964;42.606;23.588;2022-11-25T14:24:39;5.53;;;3.67;;
1925;SDS011;964;42.606;23.588;2022-11-25T14:27:12;4.40;;;3.80;;
1925;SDS011;964;42.606;23.588;2022-11-25T14:29:41;4.80;;;3.20;;
1925;SDS011;964;42.606;23.588;2022-11-25T14:32:12;4.07;;;3.03;;
1925;SDS011;964;42.606;23.588;2022-11-25T14:34:45;4.50;;;2.70;;
1925;SDS011;964;42.606;23.588;2022-11-25T14:37:18;5.17;;;3.93;;
1925;SDS011;964;42.606;23.588;2022-11-25T14:39:51;4.80;;;3.30;;
1925;SDS011;964;42.606;23.588;2022-11-25T14:42:22;3.97;;;2.43;;
1925;SDS011;964;42.606;23.588;2022-11-25T14:44:53;5.27;;;4.27;;
1925;SDS011;964;42.606;23.588;2022-11-25T14:47:22;7.10;;;4.00;;
1925;SDS011;964;42.606;23.588;2022-11-25T14:49:50;4.43;;;3.30;;
1925;SDS011;964;42.606;23.588;2022-11-25T14:52:20;6.17;;;4.60;;
1925;SDS011;964;42.606;23.588;2022-11-25T14:54:49;6.70;;;3.63;;
1925;SDS011;964;42.606;23.588;2022-11-25T14:57:19;3.60;;;3.30;;
1925;SDS011;964;42.606;23.588;2022-11-25T14:59:49;6.43;;;4.73;;
1925;SDS011;964;42.606;23.588;2022-11-25T15:02:23;6.40;;;4.10;;
1925;SDS011;964;42.606;23.588;2022-11-25T15:04:52;7.13;;;4.30;;
1925;SDS011;964;42.606;23.588;2022-11-25T15:07:27;8.60;;;4.70;;
1925;SDS011;964;42.606;23.588;2022-11-25T15:09:53;4.37;;;3.80;;
1925;SDS011;964;42.606;23.588;2022-11-25T15:12:20;6.70;;;5.17;;
1925;SDS011;964;42.606;23.588;2022-11-25T15:14:52;6.23;;;4.30;;
1925;SDS011;964;42.606;23.588;2022-11-25T15:17:23;8.43;;;4.53;;
1925;SDS011;964;42.606;23.588;2022-11-25T15:19:53;6.63;;;4.97;;
1925;SDS011;964;42.606;23.588;2022-11-25T15:22:21;10.50;;;4.13;;
1925;SDS011;964;42.606;23.588;2022-11-25T15:24:50;5.67;;;3.80;;
1925;SDS011;964;42.606;23.588;2022-11-25T15:27:18;6.23;;;4.60;;
1925;SDS011;964;42.606;23.588;2022-11-25T15:29:51;7.50;;;5.07;;
1925;SDS011;964;42.606;23.588;2022-11-25T15:32:19;5.67;;;4.63;;
1925;SDS011;964;42.606;23.588;2022-11-25T15:34:50;7.87;;;5.27;;
1925;SDS011;964;42.606;23.588;2022-11-25T15:37:17;6.90;;;5.10;;
1925;SDS011;964;42.606;23.588;2022-11-25T15:39:44;8.90;;;4.97;;
1925;SDS011;964;42.606;23.588;2022-11-25T15:42:15;6.63;;;4.37;;
1925;SDS011;964;42.606;23.588;2022-11-25T15:44:45;8.03;;;5.23;;
1925;SDS011;964;42.606;23.588;2022-11-25T15:47:17;5.20;;;4.70;;
1925;SDS011;964;42.606;23.588;2022-11-25T15:49:48;9.87;;;4.50;;
1925;SDS011;964;42.606;23.588;2022-11-25T15:52:23;5.27;;;4.00;;
1925;SDS011;964;42.606;23.588;2022-11-25T15:54:59;10.00;;;3.97;;